sensor_id;sensor_type;location;lat;lon;timestamp;P1;durP1;ratioP1;P2;durP2;ratioP2
36211;SDS011;22247;48.586;13.492;2023-10-08T00:00:41;12.77;;;6.55;;
36211;SDS011;22247;48.586;13.492;2023-10-08T00:03:20;11.20;;;6.65;;
36211;SDS011;22247;48.586;13.492;2023-10-08T00:05:45;10.75;;;5.93;;
36211;SDS011;22247;48.586;13.492;2023-10-08T00:08:10;13.02;;;6.13;;
36211;SDS011;22247;48.586;13.492;2023-10-08T00:10:36;13.15;;;5.47;;
36211;SDS011;22247;48.586;13.492;2023-10-08T00:13:05;13.68;;;6.47;;
36211;SDS011;22247;48.586;13.492;2023-10-08T00:15:34;12.40;;;5.85;;
36211;SDS011;22247;48.586;13.492;2023-10-08T00:18:00;17.85;;;6.40;;
36211;SDS011;22247;48.586;13.492;2023-10-08T00:20:25;9.80;;;5.22;;
36211;SDS011;22247;48.586;13.492;2023-10-08T00:22:52;17.92;;;6.22;;
36211;SDS011;22247;48.586;13.492;2023-10-08T00:25:19;15.20;;;5.90;;
36211;SDS011;22247;48.586;13.492;2023-10-08T00:30:09;15.02;;;6.95;;
36211;SDS011;22247;48.586;13.492;2023-10-08T00:32:41;15.70;;;5.93;;
36211;SDS011;22247;48.586;13.492;2023-10-08T00:37:32;15.13;;;6.57;;
36211;SDS011;22247;48.586;13.492;2023-10-08T00:39:58;19.50;;;7.40;;
36211;SDS011;22247;48.586;13.492;2023-10-08T00:42:23;11.85;;;6.20;;
36211;SDS011;22247;48.586;13.492;2023-10-08T00:44:49;12.13;;;5.60;;
36211;SDS011;22247;48.586;13.492;2023-10-08T00:47:18;14.10;;;6.13;;
36211;SDS011;22247;48.586;13.492;2023-10-08T00:49:46;12.20;;;6.32;;
36211;SDS011;22247;48.586;13.492;2023-10-08T00:52:26;14.07;;;6.45;;
36211;SDS011;22247;48.586;13.492;2023-10-08T00:54:54;12.00;;;6.30;;
36211;SDS011;22247;48.586;13.492;2023-10-08T00:59:44;17.20;;;6.15;;
36211;SDS011;22247;48.586;13.492;2023-10-08T01:02:11;14.00;;;7.13;;
36211;SDS011;22247;48.586;13.492;2023-10-08T01:04:40;17.17;;;6.70;;
36211;SDS011;22247;48.586;13.492;2023-10-08T01:07:08;14.65;;;6.82;;
36211;SDS011;22247;48.586;13.492;2023-10-08T01:09:42;18.17;;;6.70;;
36211;SDS011;22247;48.586;13.492;2023-10-08T01:12:15;15.95;;;8.02;;
36211;SDS011;22247;48.586;13.492;2023-10-08T01:14:46;13.90;;;7.47;;
36211;SDS011;22247;48.586;13.492;2023-10-08T01:17:13;15.38;;;7.13;;
36211;SDS011;22247;48.586;13.492;2023-10-08T01:19:39;13.52;;;6.93;;
36211;SDS011;22247;48.586;13.492;2023-10-08T01:22:06;14.57;;;7.15;;
36211;SDS011;22247;48.586;13.492;2023-10-08T01:24:31;15.98;;;8.13;;
36211;SDS011;22247;48.586;13.492;2023-10-08T01:26:58;18.00;;;7.30;;
36211;SDS011;22247;48.586;13.492;2023-10-08T01:34:17;11.27;;;5.45;;
36211;SDS011;22247;48.586;13.492;2023-10-08T01:36:42;16.15;;;6.50;;
36211;SDS011;22247;48.586;13.492;2023-10-08T01:39:11;12.77;;;6.68;;
36211;SDS011;22247;48.586;13.492;2023-10-08T01:41:40;17.92;;;6.72;;
36211;SDS011;22247;48.586;13.492;2023-10-08T01:46:32;13.73;;;6.30;;
36211;SDS011;22247;48.586;13.492;2023-10-08T01:48:57;11.57;;;5.60;;
36211;SDS011;22247;48.586;13.492;2023-10-08T01:51:32;10.80;;;5.55;;
36211;SDS011;22247;48.586;13.492;2023-10-08T01:54:08;11.32;;;5.93;;
36211;SDS011;22247;48.586;13.492;2023-10-08T01:56:38;15.05;;;5.95;;
36211;SDS011;22247;48.586;13.492;2023-10-08T01:59:07;12.50;;;5.88;;
36211;SDS011;22247;48.586;13.492;2023-10-08T02:01:33;13.38;;;5.65;;
36211;SDS011;22247;48.586;13.492;2023-10-08T02:06:23;13.23;;;5.97;;
36211;SDS011;22247;48.586;13.492;2023-10-08T02:11:13;14.52;;;6.53;;
36211;SDS011;22247;48.586;13.492;2023-10-08T02:13:39;17.98;;;5.65;;
36211;SDS011;22247;48.586;13.492;2023-10-08T02:18:31;14.38;;;5.78;;
36211;SDS011;22247;48.586;13.492;2023-10-08T02:20:56;13.32;;;5.47;;
36211;SDS011;22247;48.586;13.492;2023-10-08T02:23:22;15.23;;;5.60;;
36211;SDS011;22247;48.586;13.492;2023-10-08T02:28:12;12.30;;;5.53;;
36211;SDS011;22247;48.586;13.492;2023-10-08T02:30:39;8.88;;;5.60;;
36211;SDS011;22247;48.586;13.492;2023-10-08T02:33:05;12.77;;;5.93;;
36211;SDS011;22247;48.586;13.492;2023-10-08T02:35:43;15.32;;;5.43;;
36211;SDS011;22247;48.586;13.492;2023-10-08T02:38:09;11.30;;;5.95;;
36211;SDS011;22247;48.586;13.492;2023-10-08T02:40:34;10.55;;;4.93;;
36211;SDS011;22247;48.586;13.492;2023-10-08T02:43:00;18.17;;;5.75;;
36211;SDS011;22247;48.586;13.492;2023-10-08T02:47:50;12.65;;;6.05;;
36211;SDS011;22247;48.586;13.492;2023-10-08T02:50:16;14.25;;;5.90;;
36211;SDS011;22247;48.586;13.492;2023-10-08T02:52:42;15.68;;;6.30;;
36211;SDS011;22247;48.586;13.492;2023-10-08T02:55:08;12.13;;;5.93;;
36211;SDS011;22247;48.586;13.492;2023-10-08T02:57:44;10.50;;;5.60;;
36211;SDS011;22247;48.586;13.492;2023-10-08T03:02:37;10.65;;;5.80;;
36211;SDS011;22247;48.586;13.492;2023-10-08T03:05:03;14.75;;;5.47;;
36211;SDS011;22247;48.586;13.492;2023-10-08T03:07:32;13.68;;;5.63;;
36211;SDS011;22247;48.586;13.492;2023-10-08T03:12:40;13.05;;;5.63;;
36211;SDS011;22247;48.586;13.492;2023-10-08T03:15:07;12.93;;;5.85;;
36211;SDS011;22247;48.586;13.492;2023-10-08T03:17:51;15.05;;;5.70;;
36211;SDS011;22247;48.586;13.492;2023-10-08T03:23:00;15.98;;;6.57;;
36211;SDS011;22247;48.586;13.492;2023-10-08T03:25:29;24.90;;;6.78;;
36211;SDS011;22247;48.586;13.492;2023-10-08T03:27:54;18.10;;;7.18;;
36211;SDS011;22247;48.586;13.492;2023-10-08T03:30:20;12.40;;;6.05;;
36211;SDS011;22247;48.586;13.492;2023-10-08T03:32:45;12.07;;;5.57;;
36211;SDS011;22247;48.586;13.492;2023-10-08T03:35:19;12.73;;;5.40;;
36211;SDS011;22247;48.586;13.492;2023-10-08T03:37:51;12.23;;;5.38;;
36211;SDS011;22247;48.586;13.492;2023-10-08T03:40:18;13.55;;;6.07;;
36211;SDS011;22247;48.586;13.492;2023-10-08T03:42:49;10.60;;;5.65;;
36211;SDS011;22247;48.586;13.492;2023-10-08T03:47:46;14.43;;;5.93;;
36211;SDS011;22247;48.586;13.492;2023-10-08T03:50:17;13.55;;;5.90;;
36211;SDS011;22247;48.586;13.492;2023-10-08T03:52:42;11.23;;;5.50;;
36211;SDS011;22247;48.586;13.492;2023-10-08T03:55:08;11.18;;;5.00;;
36211;SDS011;22247;48.586;13.492;2023-10-08T03:57:42;12.73;;;5.72;;
36211;SDS011;22247;48.586;13.492;2023-10-08T04:00:08;10.05;;;5.57;;
36211;SDS011;22247;48.586;13.492;2023-10-08T04:02:38;13.40;;;5.13;;
36211;SDS011;22247;48.586;13.492;2023-10-08T04:05:10;12.90;;;5.45;;
36211;SDS011;22247;48.586;13.492;2023-10-08T04:07:45;12.48;;;6.18;;
36211;SDS011;22247;48.586;13.492;2023-10-08T04:10:22;11.73;;;4.97;;
36211;SDS011;22247;48.586;13.492;2023-10-08T04:13:06;9.93;;;5.07;;
36211;SDS011;22247;48.586;13.492;2023-10-08T04:15:32;15.65;;;6.03;;
36211;SDS011;22247;48.586;13.492;2023-10-08T04:20:26;11.52;;;5.75;;
36211;SDS011;22247;48.586;13.492;2023-10-08T04:23:03;16.15;;;6.60;;
36211;SDS011;22247;48.586;13.492;2023-10-08T04:25:29;16.33;;;5.63;;
36211;SDS011;22247;48.586;13.492;2023-10-08T04:27:54;13.65;;;5.93;;
36211;SDS011;22247;48.586;13.492;2023-10-08T04:30:22;13.32;;;6.40;;
36211;SDS011;22247;48.586;13.492;2023-10-08T04:32:52;14.75;;;7.30;;
36211;SDS011;22247;48.586;13.492;2023-10-08T04:37:43;16.40;;;6.63;;
36211;SDS011;22247;48.586;13.492;2023-10-08T04:40:08;15.15;;;6.60;;
36211;SDS011;22247;48.586;13.492;2023-10-08T04:42:40;13.85;;;6.20;;
36211;SDS011;22247;48.586;13.492;2023-10-08T04:45:08;12.48;;;6.43;;
36211;SDS011;22247;48.586;13.492;2023-10-08T04:47:37;17.70;;;5.90;;
36211;SDS011;22247;48.586;13.492;2023-10-08T04:50:06;13.52;;;6.45;;
36211;SDS011;22247;48.586;13.492;2023-10-08T04:52:38;11.30;;;5.97;;
36211;SDS011;22247;48.586;13.492;2023-10-08T04:55:11;11.95;;;6.35;;
36211;SDS011;22247;48.586;13.492;2023-10-08T04:57:40;12.32;;;6.03;;
36211;SDS011;22247;48.586;13.492;2023-10-08T05:00:06;12.02;;;5.75;;
36211;SDS011;22247;48.586;13.492;2023-10-08T05:02:38;18.92;;;6.53;;
36211;SDS011;22247;48.586;13.492;2023-10-08T05:05:18;12.68;;;5.97;;
36211;SDS011;22247;48.586;13.492;2023-10-08T05:10:11;9.27;;;4.75;;
36211;SDS011;22247;48.586;13.492;2023-10-08T05:12:36;11.02;;;5.40;;
36211;SDS011;22247;48.586;13.492;2023-10-08T05:15:02;12.73;;;5.88;;
36211;SDS011;22247;48.586;13.492;2023-10-08T05:17:47;10.80;;;5.50;;
36211;SDS011;22247;48.586;13.492;2023-10-08T05:20:18;17.38;;;6.55;;
36211;SDS011;22247;48.586;13.492;2023-10-08T05:22:54;12.95;;;6.10;;
36211;SDS011;22247;48.586;13.492;2023-10-08T05:25:56;11.82;;;6.10;;
36211;SDS011;22247;48.586;13.492;2023-10-08T05:28:30;12.50;;;6.38;;
36211;SDS011;22247;48.586;13.492;2023-10-08T05:30:59;15.13;;;5.38;;
36211;SDS011;22247;48.586;13.492;2023-10-08T05:33:40;10.13;;;5.18;;
36211;SDS011;22247;48.586;13.492;2023-10-08T05:36:39;12.05;;;5.60;;
36211;SDS011;22247;48.586;13.492;2023-10-08T05:39:22;11.32;;;5.30;;
36211;SDS011;22247;48.586;13.492;2023-10-08T05:44:16;12.18;;;5.60;;
36211;SDS011;22247;48.586;13.492;2023-10-08T05:46:48;9.40;;;4.97;;
36211;SDS011;22247;48.586;13.492;2023-10-08T05:49:30;10.23;;;5.05;;
36211;SDS011;22247;48.586;13.492;2023-10-08T05:54:21;11.40;;;5.25;;
36211;SDS011;22247;48.586;13.492;2023-10-08T05:59:36;12.10;;;5.80;;
36211;SDS011;22247;48.586;13.492;2023-10-08T06:02:19;15.93;;;5.68;;
36211;SDS011;22247;48.586;13.492;2023-10-08T06:04:57;11.35;;;5.18;;
36211;SDS011;22247;48.586;13.492;2023-10-08T06:07:44;10.30;;;5.18;;
36211;SDS011;22247;48.586;13.492;2023-10-08T06:10:12;14.15;;;5.13;;
36211;SDS011;22247;48.586;13.492;2023-10-08T06:15:28;16.10;;;6.07;;
36211;SDS011;22247;48.586;13.492;2023-10-08T06:18:08;9.90;;;5.38;;
36211;SDS011;22247;48.586;13.492;2023-10-08T06:22:58;11.45;;;5.32;;
36211;SDS011;22247;48.586;13.492;2023-10-08T06:25:30;18.65;;;5.28;;
36211;SDS011;22247;48.586;13.492;2023-10-08T06:30:22;9.68;;;5.13;;
36211;SDS011;22247;48.586;13.492;2023-10-08T06:32:48;10.95;;;5.13;;
36211;SDS011;22247;48.586;13.492;2023-10-08T06:35:17;8.50;;;5.15;;
36211;SDS011;22247;48.586;13.492;2023-10-08T06:37:48;12.20;;;4.57;;
36211;SDS011;22247;48.586;13.492;2023-10-08T06:40:18;11.25;;;5.65;;
36211;SDS011;22247;48.586;13.492;2023-10-08T06:43:07;8.82;;;4.50;;
36211;SDS011;22247;48.586;13.492;2023-10-08T06:45:37;12.40;;;5.53;;
36211;SDS011;22247;48.586;13.492;2023-10-08T06:48:03;14.95;;;6.45;;
36211;SDS011;22247;48.586;13.492;2023-10-08T06:50:30;12.30;;;5.07;;
36211;SDS011;22247;48.586;13.492;2023-10-08T06:52:58;19.75;;;5.45;;
36211;SDS011;22247;48.586;13.492;2023-10-08T06:57:51;10.02;;;4.75;;
36211;SDS011;22247;48.586;13.492;2023-10-08T07:00:16;19.85;;;5.03;;
36211;SDS011;22247;48.586;13.492;2023-10-08T07:03:01;10.97;;;6.77;;
36211;SDS011;22247;48.586;13.492;2023-10-08T07:05:26;19.45;;;5.55;;
36211;SDS011;22247;48.586;13.492;2023-10-08T07:07:53;12.52;;;5.25;;
36211;SDS011;22247;48.586;13.492;2023-10-08T07:12:43;12.43;;;5.00;;
36211;SDS011;22247;48.586;13.492;2023-10-08T07:15:10;14.80;;;5.75;;
36211;SDS011;22247;48.586;13.492;2023-10-08T07:17:37;9.98;;;5.00;;
36211;SDS011;22247;48.586;13.492;2023-10-08T07:20:04;14.25;;;5.63;;
36211;SDS011;22247;48.586;13.492;2023-10-08T07:22:36;12.40;;;5.45;;
36211;SDS011;22247;48.586;13.492;2023-10-08T07:25:03;14.48;;;5.10;;
36211;SDS011;22247;48.586;13.492;2023-10-08T07:27:32;12.85;;;5.47;;
36211;SDS011;22247;48.586;13.492;2023-10-08T07:30:01;9.25;;;5.18;;
36211;SDS011;22247;48.586;13.492;2023-10-08T07:32:28;10.45;;;5.50;;
36211;SDS011;22247;48.586;13.492;2023-10-08T07:34:54;13.75;;;5.30;;
36211;SDS011;22247;48.586;13.492;2023-10-08T07:37:38;9.27;;;5.60;;
36211;SDS011;22247;48.586;13.492;2023-10-08T07:40:04;11.13;;;4.90;;
36211;SDS011;22247;48.586;13.492;2023-10-08T07:42:35;17.70;;;5.38;;
36211;SDS011;22247;48.586;13.492;2023-10-08T07:45:01;10.27;;;4.93;;
36211;SDS011;22247;48.586;13.492;2023-10-08T07:47:28;12.57;;;5.20;;
36211;SDS011;22247;48.586;13.492;2023-10-08T07:49:54;10.95;;;5.00;;
36211;SDS011;22247;48.586;13.492;2023-10-08T07:52:19;14.73;;;5.22;;
36211;SDS011;22247;48.586;13.492;2023-10-08T07:54:45;12.13;;;5.18;;
36211;SDS011;22247;48.586;13.492;2023-10-08T07:57:13;12.32;;;4.55;;
36211;SDS011;22247;48.586;13.492;2023-10-08T07:59:50;10.30;;;4.60;;
36211;SDS011;22247;48.586;13.492;2023-10-08T08:02:18;8.20;;;4.28;;
36211;SDS011;22247;48.586;13.492;2023-10-08T08:04:50;14.90;;;5.00;;
36211;SDS011;22247;48.586;13.492;2023-10-08T08:07:16;12.48;;;5.25;;
36211;SDS011;22247;48.586;13.492;2023-10-08T08:12:08;11.48;;;5.05;;
36211;SDS011;22247;48.586;13.492;2023-10-08T08:14:34;11.52;;;5.72;;
36211;SDS011;22247;48.586;13.492;2023-10-08T08:17:02;15.30;;;5.78;;
36211;SDS011;22247;48.586;13.492;2023-10-08T08:19:37;12.32;;;5.60;;
36211;SDS011;22247;48.586;13.492;2023-10-08T08:24:28;13.00;;;5.78;;
36211;SDS011;22247;48.586;13.492;2023-10-08T08:29:34;13.35;;;5.78;;
36211;SDS011;22247;48.586;13.492;2023-10-08T08:37:18;12.20;;;5.63;;
36211;SDS011;22247;48.586;13.492;2023-10-08T08:39:44;18.20;;;4.75;;
36211;SDS011;22247;48.586;13.492;2023-10-08T08:42:09;12.25;;;4.85;;
36211;SDS011;22247;48.586;13.492;2023-10-08T08:47:03;10.70;;;5.78;;
36211;SDS011;22247;48.586;13.492;2023-10-08T08:49:34;11.68;;;5.85;;
36211;SDS011;22247;48.586;13.492;2023-10-08T08:52:01;13.32;;;5.82;;
36211;SDS011;22247;48.586;13.492;2023-10-08T08:54:28;12.10;;;5.63;;
36211;SDS011;22247;48.586;13.492;2023-10-08T08:56:54;16.55;;;6.03;;
36211;SDS011;22247;48.586;13.492;2023-10-08T08:59:20;14.55;;;5.95;;
36211;SDS011;22247;48.586;13.492;2023-10-08T09:01:46;18.88;;;5.90;;
36211;SDS011;22247;48.586;13.492;2023-10-08T09:04:11;14.65;;;5.65;;
36211;SDS011;22247;48.586;13.492;2023-10-08T09:06:40;17.30;;;6.40;;
36211;SDS011;22247;48.586;13.492;2023-10-08T09:09:06;12.65;;;5.40;;
36211;SDS011;22247;48.586;13.492;2023-10-08T09:11:46;15.40;;;6.22;;
36211;SDS011;22247;48.586;13.492;2023-10-08T09:14:15;13.93;;;6.15;;
36211;SDS011;22247;48.586;13.492;2023-10-08T09:16:40;10.40;;;5.50;;
36211;SDS011;22247;48.586;13.492;2023-10-08T09:19:07;13.50;;;5.10;;
36211;SDS011;22247;48.586;13.492;2023-10-08T09:21:42;14.70;;;6.15;;
36211;SDS011;22247;48.586;13.492;2023-10-08T09:24:08;13.52;;;6.03;;
36211;SDS011;22247;48.586;13.492;2023-10-08T09:26:35;12.23;;;6.25;;
36211;SDS011;22247;48.586;13.492;2023-10-08T09:29:01;11.48;;;5.57;;
36211;SDS011;22247;48.586;13.492;2023-10-08T09:31:26;13.50;;;6.07;;
36211;SDS011;22247;48.586;13.492;2023-10-08T09:33:59;9.80;;;5.28;;
36211;SDS011;22247;48.586;13.492;2023-10-08T09:36:24;15.68;;;6.22;;
36211;SDS011;22247;48.586;13.492;2023-10-08T09:38:55;14.43;;;6.25;;
36211;SDS011;22247;48.586;13.492;2023-10-08T09:41:28;15.30;;;5.55;;
36211;SDS011;22247;48.586;13.492;2023-10-08T09:43:56;14.32;;;5.47;;
36211;SDS011;22247;48.586;13.492;2023-10-08T09:46:23;11.38;;;5.65;;
36211;SDS011;22247;48.586;13.492;2023-10-08T09:48:52;16.58;;;6.00;;
36211;SDS011;22247;48.586;13.492;2023-10-08T09:51:20;24.48;;;5.65;;
36211;SDS011;22247;48.586;13.492;2023-10-08T09:53:56;10.27;;;4.78;;
36211;SDS011;22247;48.586;13.492;2023-10-08T09:56:28;11.63;;;4.55;;
36211;SDS011;22247;48.586;13.492;2023-10-08T09:58:54;14.02;;;5.40;;
36211;SDS011;22247;48.586;13.492;2023-10-08T10:01:20;12.98;;;4.70;;
36211;SDS011;22247;48.586;13.492;2023-10-08T10:03:46;12.55;;;4.22;;
36211;SDS011;22247;48.586;13.492;2023-10-08T10:06:13;11.63;;;3.80;;
36211;SDS011;22247;48.586;13.492;2023-10-08T10:08:44;12.43;;;4.32;;
36211;SDS011;22247;48.586;13.492;2023-10-08T10:11:11;16.42;;;4.72;;
36211;SDS011;22247;48.586;13.492;2023-10-08T10:13:42;9.45;;;4.32;;
36211;SDS011;22247;48.586;13.492;2023-10-08T10:16:09;10.95;;;4.18;;
36211;SDS011;22247;48.586;13.492;2023-10-08T10:18:35;12.63;;;4.55;;
36211;SDS011;22247;48.586;13.492;2023-10-08T10:23:43;13.77;;;4.82;;
36211;SDS011;22247;48.586;13.492;2023-10-08T10:34:11;14.95;;;5.43;;
36211;SDS011;22247;48.586;13.492;2023-10-08T10:36:37;15.75;;;6.30;;
36211;SDS011;22247;48.586;13.492;2023-10-08T10:39:03;17.10;;;6.03;;
36211;SDS011;22247;48.586;13.492;2023-10-08T10:41:39;20.40;;;7.07;;
36211;SDS011;22247;48.586;13.492;2023-10-08T10:44:06;14.57;;;5.30;;
36211;SDS011;22247;48.586;13.492;2023-10-08T10:46:32;11.70;;;4.60;;
36211;SDS011;22247;48.586;13.492;2023-10-08T10:49:00;12.98;;;4.90;;
36211;SDS011;22247;48.586;13.492;2023-10-08T10:51:51;11.45;;;5.22;;
36211;SDS011;22247;48.586;13.492;2023-10-08T10:54:16;9.55;;;4.32;;
36211;SDS011;22247;48.586;13.492;2023-10-08T10:56:47;10.82;;;4.10;;
36211;SDS011;22247;48.586;13.492;2023-10-08T10:59:27;13.73;;;5.25;;
36211;SDS011;22247;48.586;13.492;2023-10-08T11:04:19;19.73;;;6.55;;
36211;SDS011;22247;48.586;13.492;2023-10-08T11:06:52;10.50;;;4.50;;
36211;SDS011;22247;48.586;13.492;2023-10-08T11:09:20;16.48;;;4.75;;
36211;SDS011;22247;48.586;13.492;2023-10-08T11:11:59;14.57;;;5.15;;
36211;SDS011;22247;48.586;13.492;2023-10-08T11:14:26;12.82;;;4.75;;
36211;SDS011;22247;48.586;13.492;2023-10-08T11:16:51;17.08;;;5.53;;
36211;SDS011;22247;48.586;13.492;2023-10-08T11:19:19;13.45;;;4.82;;
36211;SDS011;22247;48.586;13.492;2023-10-08T11:24:26;14.75;;;5.47;;
36211;SDS011;22247;48.586;13.492;2023-10-08T11:26:51;16.00;;;4.85;;
36211;SDS011;22247;48.586;13.492;2023-10-08T11:29:48;12.23;;;5.10;;
36211;SDS011;22247;48.586;13.492;2023-10-08T11:32:20;12.55;;;5.22;;
36211;SDS011;22247;48.586;13.492;2023-10-08T11:34:49;20.13;;;5.25;;
36211;SDS011;22247;48.586;13.492;2023-10-08T11:39:53;12.82;;;5.13;;
36211;SDS011;22247;48.586;13.492;2023-10-08T11:42:22;15.73;;;5.65;;
36211;SDS011;22247;48.586;13.492;2023-10-08T11:45:04;12.10;;;5.35;;
36211;SDS011;22247;48.586;13.492;2023-10-08T11:47:53;15.25;;;4.72;;
36211;SDS011;22247;48.586;13.492;2023-10-08T11:50:24;12.25;;;4.63;;
36211;SDS011;22247;48.586;13.492;2023-10-08T11:52:54;14.02;;;5.28;;
36211;SDS011;22247;48.586;13.492;2023-10-08T11:55:23;10.10;;;4.57;;
36211;SDS011;22247;48.586;13.492;2023-10-08T11:57:50;13.05;;;4.55;;
36211;SDS011;22247;48.586;13.492;2023-10-08T12:00:16;15.88;;;4.45;;
36211;SDS011;22247;48.586;13.492;2023-10-08T12:02:50;13.85;;;4.47;;
36211;SDS011;22247;48.586;13.492;2023-10-08T12:05:18;12.43;;;4.03;;
36211;SDS011;22247;48.586;13.492;2023-10-08T12:07:43;10.30;;;4.10;;
36211;SDS011;22247;48.586;13.492;2023-10-08T12:10:08;10.60;;;4.03;;
36211;SDS011;22247;48.586;13.492;2023-10-08T12:12:35;12.50;;;4.43;;
36211;SDS011;22247;48.586;13.492;2023-10-08T12:15:00;13.18;;;4.40;;
36211;SDS011;22247;48.586;13.492;2023-10-08T12:17:27;19.65;;;4.43;;
36211;SDS011;22247;48.586;13.492;2023-10-08T12:20:01;18.35;;;4.10;;
36211;SDS011;22247;48.586;13.492;2023-10-08T12:22:36;18.55;;;4.43;;
36211;SDS011;22247;48.586;13.492;2023-10-08T12:25:01;9.75;;;4.07;;
36211;SDS011;22247;48.586;13.492;2023-10-08T12:27:26;14.23;;;4.15;;
36211;SDS011;22247;48.586;13.492;2023-10-08T12:29:51;10.52;;;3.20;;
36211;SDS011;22247;48.586;13.492;2023-10-08T12:32:16;10.27;;;4.40;;
36211;SDS011;22247;48.586;13.492;2023-10-08T12:34:43;9.48;;;3.67;;
36211;SDS011;22247;48.586;13.492;2023-10-08T12:37:08;11.45;;;3.88;;
36211;SDS011;22247;48.586;13.492;2023-10-08T12:39:33;9.25;;;3.42;;
36211;SDS011;22247;48.586;13.492;2023-10-08T12:42:07;11.17;;;3.70;;
36211;SDS011;22247;48.586;13.492;2023-10-08T12:44:32;9.32;;;4.43;;
36211;SDS011;22247;48.586;13.492;2023-10-08T12:46:57;27.83;;;4.60;;
36211;SDS011;22247;48.586;13.492;2023-10-08T12:49:23;8.43;;;3.58;;
36211;SDS011;22247;48.586;13.492;2023-10-08T12:51:49;13.32;;;4.65;;
36211;SDS011;22247;48.586;13.492;2023-10-08T12:54:16;11.60;;;4.00;;
36211;SDS011;22247;48.586;13.492;2023-10-08T12:56:46;10.00;;;3.97;;
36211;SDS011;22247;48.586;13.492;2023-10-08T12:59:12;15.50;;;4.00;;
36211;SDS011;22247;48.586;13.492;2023-10-08T13:01:48;10.93;;;3.75;;
36211;SDS011;22247;48.586;13.492;2023-10-08T13:04:18;8.57;;;3.45;;
36211;SDS011;22247;48.586;13.492;2023-10-08T13:06:52;9.18;;;4.15;;
36211;SDS011;22247;48.586;13.492;2023-10-08T13:09:20;13.88;;;4.45;;
36211;SDS011;22247;48.586;13.492;2023-10-08T13:11:46;11.15;;;3.55;;
36211;SDS011;22247;48.586;13.492;2023-10-08T13:14:11;16.73;;;4.28;;
36211;SDS011;22247;48.586;13.492;2023-10-08T13:16:36;13.45;;;4.07;;
36211;SDS011;22247;48.586;13.492;2023-10-08T13:19:01;10.82;;;4.07;;
36211;SDS011;22247;48.586;13.492;2023-10-08T13:21:27;13.93;;;5.03;;
36211;SDS011;22247;48.586;13.492;2023-10-08T13:23:52;10.95;;;4.78;;
36211;SDS011;22247;48.586;13.492;2023-10-08T13:26:17;12.63;;;4.15;;
36211;SDS011;22247;48.586;13.492;2023-10-08T13:28:46;12.50;;;4.47;;
36211;SDS011;22247;48.586;13.492;2023-10-08T13:31:11;15.18;;;4.47;;
36211;SDS011;22247;48.586;13.492;2023-10-08T13:33:40;14.40;;;4.35;;
36211;SDS011;22247;48.586;13.492;2023-10-08T13:36:07;16.42;;;5.32;;
36211;SDS011;22247;48.586;13.492;2023-10-08T13:38:35;14.50;;;4.82;;
36211;SDS011;22247;48.586;13.492;2023-10-08T13:41:01;15.88;;;4.57;;
36211;SDS011;22247;48.586;13.492;2023-10-08T13:43:26;13.57;;;4.55;;
36211;SDS011;22247;48.586;13.492;2023-10-08T13:45:57;17.55;;;4.70;;
36211;SDS011;22247;48.586;13.492;2023-10-08T13:48:28;12.85;;;4.57;;
36211;SDS011;22247;48.586;13.492;2023-10-08T13:50:53;16.75;;;4.88;;
36211;SDS011;22247;48.586;13.492;2023-10-08T13:53:18;14.77;;;5.20;;
36211;SDS011;22247;48.586;13.492;2023-10-08T13:55:44;14.35;;;5.25;;
36211;SDS011;22247;48.586;13.492;2023-10-08T13:58:09;10.75;;;4.57;;
36211;SDS011;22247;48.586;13.492;2023-10-08T14:00:36;11.45;;;4.57;;
36211;SDS011;22247;48.586;13.492;2023-10-08T14:03:02;13.05;;;4.72;;
36211;SDS011;22247;48.586;13.492;2023-10-08T14:05:32;15.25;;;5.20;;
36211;SDS011;22247;48.586;13.492;2023-10-08T14:07:58;10.10;;;4.63;;
36211;SDS011;22247;48.586;13.492;2023-10-08T14:10:25;10.95;;;4.10;;
36211;SDS011;22247;48.586;13.492;2023-10-08T14:12:53;18.63;;;4.72;;
36211;SDS011;22247;48.586;13.492;2023-10-08T14:15:18;16.95;;;4.57;;
36211;SDS011;22247;48.586;13.492;2023-10-08T14:17:46;8.02;;;3.80;;
36211;SDS011;22247;48.586;13.492;2023-10-08T14:20:17;13.00;;;4.05;;
36211;SDS011;22247;48.586;13.492;2023-10-08T14:22:46;16.67;;;4.72;;
36211;SDS011;22247;48.586;13.492;2023-10-08T14:25:16;13.15;;;4.40;;
36211;SDS011;22247;48.586;13.492;2023-10-08T14:27:41;9.05;;;3.95;;
36211;SDS011;22247;48.586;13.492;2023-10-08T14:30:15;11.45;;;4.50;;
36211;SDS011;22247;48.586;13.492;2023-10-08T14:32:45;11.07;;;4.45;;
36211;SDS011;22247;48.586;13.492;2023-10-08T14:35:10;10.38;;;4.50;;
36211;SDS011;22247;48.586;13.492;2023-10-08T14:37:53;11.70;;;4.43;;
36211;SDS011;22247;48.586;13.492;2023-10-08T14:40:37;16.58;;;4.78;;
36211;SDS011;22247;48.586;13.492;2023-10-08T14:43:21;21.05;;;5.38;;
36211;SDS011;22247;48.586;13.492;2023-10-08T14:45:48;11.55;;;4.70;;
36211;SDS011;22247;48.586;13.492;2023-10-08T14:48:13;13.48;;;4.63;;
36211;SDS011;22247;48.586;13.492;2023-10-08T14:50:38;12.73;;;5.07;;
36211;SDS011;22247;48.586;13.492;2023-10-08T14:53:03;12.77;;;4.53;;
36211;SDS011;22247;48.586;13.492;2023-10-08T14:55:29;16.88;;;4.82;;
36211;SDS011;22247;48.586;13.492;2023-10-08T14:57:55;13.38;;;4.85;;
36211;SDS011;22247;48.586;13.492;2023-10-08T15:00:20;15.15;;;5.80;;
36211;SDS011;22247;48.586;13.492;2023-10-08T15:02:48;18.23;;;5.28;;
36211;SDS011;22247;48.586;13.492;2023-10-08T15:05:13;15.20;;;5.43;;
36211;SDS011;22247;48.586;13.492;2023-10-08T15:07:38;11.30;;;5.22;;
36211;SDS011;22247;48.586;13.492;2023-10-08T15:10:04;18.13;;;5.45;;
36211;SDS011;22247;48.586;13.492;2023-10-08T15:12:30;13.50;;;4.97;;
36211;SDS011;22247;48.586;13.492;2023-10-08T15:15:01;10.45;;;4.40;;
36211;SDS011;22247;48.586;13.492;2023-10-08T15:17:36;14.52;;;4.25;;
36211;SDS011;22247;48.586;13.492;2023-10-08T15:20:01;11.93;;;4.45;;
36211;SDS011;22247;48.586;13.492;2023-10-08T15:22:27;18.45;;;5.22;;
36211;SDS011;22247;48.586;13.492;2023-10-08T15:24:55;13.07;;;4.65;;
36211;SDS011;22247;48.586;13.492;2023-10-08T15:27:20;13.25;;;4.60;;
36211;SDS011;22247;48.586;13.492;2023-10-08T15:29:45;10.98;;;4.88;;
36211;SDS011;22247;48.586;13.492;2023-10-08T15:32:10;10.20;;;4.57;;
36211;SDS011;22247;48.586;13.492;2023-10-08T15:34:36;11.18;;;4.07;;
36211;SDS011;22247;48.586;13.492;2023-10-08T15:37:01;12.75;;;4.75;;
36211;SDS011;22247;48.586;13.492;2023-10-08T15:39:28;11.32;;;4.53;;
36211;SDS011;22247;48.586;13.492;2023-10-08T15:41:53;12.07;;;4.63;;
36211;SDS011;22247;48.586;13.492;2023-10-08T15:44:19;10.75;;;4.40;;
36211;SDS011;22247;48.586;13.492;2023-10-08T15:46:48;13.32;;;5.30;;
36211;SDS011;22247;48.586;13.492;2023-10-08T15:49:13;20.40;;;4.80;;
36211;SDS011;22247;48.586;13.492;2023-10-08T15:51:38;9.55;;;4.82;;
36211;SDS011;22247;48.586;13.492;2023-10-08T15:54:04;18.27;;;5.22;;
36211;SDS011;22247;48.586;13.492;2023-10-08T15:56:29;14.68;;;4.88;;
36211;SDS011;22247;48.586;13.492;2023-10-08T15:58:55;10.88;;;4.80;;
36211;SDS011;22247;48.586;13.492;2023-10-08T16:01:20;18.92;;;4.57;;
36211;SDS011;22247;48.586;13.492;2023-10-08T16:03:45;12.55;;;4.70;;
36211;SDS011;22247;48.586;13.492;2023-10-08T16:06:14;11.15;;;4.97;;
36211;SDS011;22247;48.586;13.492;2023-10-08T16:08:42;9.55;;;4.68;;
36211;SDS011;22247;48.586;13.492;2023-10-08T16:11:07;18.35;;;4.70;;